Theologos P . — SZNB — position and weather

sailwx.info

Track history (hours):
 
Tides and Currents Weather Stations Pressure Air Temp Water Temp Dewpoint Dewpoint Depression Visibility Wind Speed Wind Dir Waves Ship Positions

Theologos P .

Last reported at 2014-Oct-02 09:23 UTC. Time now 2014-Oct-02 10:42 UTC.
Position N 38°01' E 024°01'.

Length 118 m; draft 4.5 m.

Type: Passenger vessel. MMSI: 240521000.

Date/timePositionNaut miles runAvg speedWind from/ knotsBaromVisibWave heightAir tempDewpointWater temp
2014-Oct-02 09:23N 38°01' E 024°01'2018.3
2014-Oct-02 08:15N 37°55' E 024°25'1318.7
2014-Oct-02 07:33N 37°52' E 024°42'10 9.5
2014-Oct-02 06:33N 37°45' E 024°50'1818.6
2014-Oct-02 05:33N 37°33' E 025°07'1111.0
2014-Oct-02 04:33N 37°28' E 025°20'0 0.0
2014-Oct-02 03:33N 37°28' E 025°20'0 0.0
2014-Oct-02 02:33N 37°28' E 025°20'0 0.0
2014-Oct-02 01:33N 37°28' E 025°20'0 0.0
2014-Oct-02 00:33N 37°28' E 025°20'0 0.0
2014-Oct-01 23:33N 37°28' E 025°20'0 0.0
2014-Oct-01 22:33N 37°28' E 025°20'0 0.0
2014-Oct-01 21:33N 37°28' E 025°20'0 0.0
2014-Oct-01 20:33N 37°28' E 025°20'0 0.0
2014-Oct-01 19:33N 37°28' E 025°20'9 9.3
2014-Oct-01 18:34N 37°32' E 025°09'1716.6
2014-Oct-01 17:33N 37°43' E 024°53'1310.9
2014-Oct-01 16:23N 37°52' E 024°42'2418.5
2014-Oct-01 15:06N 37°58' E 024°13'1018.2
2014-Oct-01 14:33N 38°01' E 024°01'0 0.0
2014-Oct-01 09:24N 38°01' E 024°01'2017.5
2014-Oct-01 08:14N 37°55' E 024°25'1418.6
2014-Oct-01 07:29N 37°52' E 024°42'1010.2
2014-Oct-01 06:31N 37°45' E 024°51'1718.2
2014-Oct-01 05:33N 37°33' E 025°07'1111.4
2014-Oct-01 04:33N 37°28' E 025°20'0 0.0
2014-Oct-01 03:33N 37°28' E 025°20'0 0.0
2014-Oct-01 02:33N 37°28' E 025°20'0 0.0
2014-Oct-01 01:33N 37°28' E 025°20'0 0.0
2014-Oct-01 00:33N 37°28' E 025°20'0 0.0
2014-Sep-30 23:33N 37°28' E 025°20'0 0.0
2014-Sep-30 22:33N 37°28' E 025°20'0 0.0
2014-Sep-30 21:33N 37°28' E 025°20'0 0.0
2014-Sep-30 20:33N 37°28' E 025°20'0 0.0
2014-Sep-30 19:33N 37°28' E 025°20'9 9.4
2014-Sep-30 18:34N 37°32' E 025°09'1918.1
2014-Sep-30 17:31N 37°45' E 024°51'1110.2
2014-Sep-30 16:25N 37°52' E 024°40'33 4.6
2014-Sep-30 09:17N 38°01' E 024°01'1518.3
2014-Sep-30 08:29N 37°57' E 024°18'3114.5
2014-Sep-30 06:23N 37°43' E 024°53'1518.3
2014-Sep-30 05:33N 37°33' E 025°07'1111.1
2014-Sep-30 04:33N 37°28' E 025°20'0 0.0
2014-Sep-30 03:33N 37°28' E 025°20'0 0.0
2014-Sep-30 02:33N 37°28' E 025°20'0 0.0
2014-Sep-30 01:33N 37°28' E 025°20'0 0.0
2014-Sep-30 00:33N 37°28' E 025°20'0 0.0
2014-Sep-29 23:33N 37°28' E 025°20'0 0.0
2014-Sep-29 22:33N 37°28' E 025°20'0 0.0
2014-Sep-29 21:33N 37°28' E 025°20'0 0.0
2014-Sep-29 20:33N 37°28' E 025°20'0 0.0
2014-Sep-29 19:33N 37°28' E 025°20'9 9.4
2014-Sep-29 18:33N 37°32' E 025°09'3414.2
2014-Sep-29 16:08N 37°52' E 024°33'1718.3
2014-Sep-29 15:13N 37°58' E 024°13'11 1.9
2014-Sep-29 09:33N 38°01' E 024°01'4914.4
2014-Sep-29 06:10N 37°40' E 024°56'1118.2
2014-Sep-29 05:33N 37°33' E 025°07'1111.3
2014-Sep-29 04:33N 37°28' E 025°20'0 0.0
2014-Sep-29 03:33N 37°28' E 025°20'0 0.0
2014-Sep-29 02:33N 37°28' E 025°20'0 0.0
2014-Sep-29 01:33N 37°28' E 025°20'0 0.0
2014-Sep-29 00:33N 37°28' E 025°20'0 0.0
2014-Sep-28 23:33N 37°28' E 025°20'0 0.0
2014-Sep-28 22:33N 37°28' E 025°20'0 0.0
2014-Sep-28 21:33N 37°28' E 025°20'0 0.0
2014-Sep-28 20:33N 37°28' E 025°20'0 0.0
2014-Sep-28 19:33N 37°28' E 025°20'9 9.4
2014-Sep-28 18:34N 37°32' E 025°09'5711.4
2014-Sep-28 13:32N 38°00' E 024°06'4615.4
2014-Sep-28 10:33N 37°39' E 024°58'1212.0
2014-Sep-28 09:33N 37°32' E 025°10'9 8.8
2014-Sep-28 08:33N 37°28' E 025°20'0 0.0
2014-Sep-28 07:33N 37°28' E 025°20'0 0.0
2014-Sep-28 06:33N 37°28' E 025°20'0 0.0
2014-Sep-28 05:33N 37°28' E 025°20'0 0.0
2014-Sep-28 04:33N 37°28' E 025°20'0 0.0
2014-Sep-28 03:33N 37°28' E 025°20'0 0.0
2014-Sep-28 02:33N 37°28' E 025°20'0 0.0
2014-Sep-28 01:33N 37°28' E 025°20'0 0.0
2014-Sep-28 00:33N 37°28' E 025°20'0 0.0
2014-Sep-27 23:33N 37°28' E 025°20'0 0.0
2014-Sep-27 22:34N 37°28' E 025°20'0 0.0
2014-Sep-27 21:33N 37°28' E 025°20'0 0.0
2014-Sep-27 20:32N 37°28' E 025°20'0 0.0
2014-Sep-27 19:33N 37°28' E 025°20'9 9.2
2014-Sep-27 18:33N 37°32' E 025°09'1615.3
2014-Sep-27 17:30N 37°42' E 024°54'1411.8
2014-Sep-27 16:17N 37°52' E 024°40'2018.3
2014-Sep-27 15:11N 37°58' E 024°15'1218.9
2014-Sep-27 14:33N 38°01' E 024°01'4 3.7
2014-Sep-27 13:33N 38°00' E 024°06'2018.9
2014-Sep-27 12:29N 37°54' E 024°30'1612.5
2014-Sep-27 11:13N 37°47' E 024°48'1218.7
2014-Sep-27 10:34N 37°38' E 024°59'1414.2
2014-Sep-27 09:33N 37°30' E 025°14'3 3.3
2014-Sep-27 08:34N 37°28' E 025°17'1413.4
2014-Sep-27 07:33N 37°35' E 025°03'3615.5
2014-Sep-27 05:13N 37°56' E 024°25'1419.3
2014-Sep-27 04:29N 38°00' E 024°08'5 1.3
2014-Sep-27 00:07N 38°01' E 024°01'1016.2
2014-Sep-26 23:32N 37°58' E 024°12'1918.7
2014-Sep-26 22:32N 37°53' E 024°35'1817.7
2014-Sep-26 21:31N 37°42' E 024°53'1818.5
2014-Sep-26 20:33N 37°31' E 025°10'8 7.7
2014-Sep-26 19:33N 37°28' E 025°19'9 9.1
2014-Sep-26 18:33N 37°32' E 025°09'2018.7
2014-Sep-26 17:30N 37°45' E 024°50'10 9.1
2014-Sep-26 16:25N 37°52' E 024°42'1618.6
2014-Sep-26 15:33N 37°56' E 024°22'18 2.8
2014-Sep-26 09:18N 38°01' E 024°01'1417.3
2014-Sep-26 08:31N 37°57' E 024°17'2814.2
2014-Sep-26 06:33N 37°45' E 024°49'1919.0
2014-Sep-26 05:32N 37°33' E 025°07'1110.9
2014-Sep-26 04:33N 37°28' E 025°20'0 0.0
2014-Sep-26 03:33N 37°28' E 025°20'0 0.0
2014-Sep-26 02:33N 37°28' E 025°20'0 0.0
2014-Sep-26 01:33N 37°28' E 025°20'0 0.0
2014-Sep-26 00:33N 37°28' E 025°20'0 0.0
2014-Sep-25 23:33N 37°28' E 025°20'0 0.0
2014-Sep-25 22:32N 37°28' E 025°20'0 0.0
2014-Sep-25 21:33N 37°28' E 025°20'0 0.0
2014-Sep-25 20:33N 37°28' E 025°20'0 0.0
2014-Sep-25 19:33N 37°28' E 025°20'9 9.3
2014-Sep-25 18:33N 37°32' E 025°09'3514.1
2014-Sep-25 16:03N 37°53' E 024°34'1618.2
2014-Sep-25 15:10N 37°58' E 024°14'11 1.9
2014-Sep-25 09:18N 38°01' E 024°01'1518.4
2014-Sep-25 08:28N 37°57' E 024°19'3014.0
2014-Sep-25 06:20N 37°43' E 024°53'1519.3
2014-Sep-25 05:33N 37°33' E 025°07'1111.3
2014-Sep-25 04:33N 37°28' E 025°20'0 0.0
2014-Sep-25 03:33N 37°28' E 025°20'0 0.0
2014-Sep-25 02:33N 37°28' E 025°20'0 0.0
2014-Sep-25 01:33N 37°28' E 025°20'0 0.0
2014-Sep-25 00:33N 37°28' E 025°20'0 0.0
2014-Sep-24 23:33N 37°28' E 025°20'0 0.0
2014-Sep-24 22:33N 37°28' E 025°20'0 0.0
2014-Sep-24 21:33N 37°28' E 025°20'0 0.0
2014-Sep-24 20:33N 37°28' E 025°20'0 0.0
2014-Sep-24 19:33N 37°28' E 025°20'9 9.3
2014-Sep-24 18:33N 37°32' E 025°09'5014.9
2014-Sep-24 15:14N 37°58' E 024°15'12 2.0
2014-Sep-24 09:17N 38°01' E 024°01'1517.8
2014-Sep-24 08:27N 37°57' E 024°19'3014.3
2014-Sep-24 06:19N 37°43' E 024°53'1519.1
2014-Sep-24 05:34N 37°33' E 025°07'1211.5
2014-Sep-24 04:33N 37°28' E 025°20'0 0.0
2014-Sep-24 03:33N 37°28' E 025°20'0 0.0
2014-Sep-24 02:33N 37°28' E 025°20'0 0.0
2014-Sep-24 01:33N 37°28' E 025°20'0 0.0
2014-Sep-24 00:33N 37°28' E 025°20'0 0.0
2014-Sep-23 23:33N 37°28' E 025°20'0 0.0
2014-Sep-23 22:33N 37°28' E 025°20'0 0.0
2014-Sep-23 21:33N 37°28' E 025°20'0 0.0
2014-Sep-23 20:33N 37°28' E 025°20'0 0.0
2014-Sep-23 19:33N 37°28' E 025°20'9 9.3
2014-Sep-23 18:33N 37°32' E 025°09'1615.9
2014-Sep-23 17:33N 37°42' E 024°54'1411.8
2014-Sep-23 16:24N 37°52' E 024°41'1618.8
2014-Sep-23 15:34N 37°56' E 024°22'18 2.8
2014-Sep-23 09:14N 38°01' E 024°01'1218.0
2014-Sep-23 08:34N 37°57' E 024°15'1919.0
2014-Sep-23 07:34N 37°53' E 024°39'1110.7
2014-Sep-23 06:32N 37°45' E 024°49'1919.1
2014-Sep-23 05:33N 37°33' E 025°06'1211.5
2014-Sep-23 04:33N 37°28' E 025°20'0 0.0
2014-Sep-23 03:33N 37°28' E 025°20'0 0.0
2014-Sep-23 02:33N 37°28' E 025°20'0 0.0
2014-Sep-23 01:33N 37°28' E 025°20'0 0.0
2014-Sep-23 00:33N 37°28' E 025°20'0 0.0
2014-Sep-22 23:33N 37°28' E 025°20'0 0.0
2014-Sep-22 22:33N 37°28' E 025°20'0 0.0
2014-Sep-22 21:33N 37°28' E 025°20'0 0.0
2014-Sep-22 20:33N 37°28' E 025°20'0 0.0
2014-Sep-22 19:33N 37°28' E 025°20'9 9.2
2014-Sep-22 18:33N 37°32' E 025°09'1515.0
2014-Sep-22 17:33N 37°41' E 024°54'1512.3
2014-Sep-22 16:19N 37°52' E 024°41'1419.0
2014-Sep-22 15:34N 37°55' E 024°23'  
Track history (hours):
 
Tides and Currents Weather Stations Pressure Air Temp Water Temp Dewpoint Dewpoint Depression Visibility Wind Speed Wind Dir Waves Ship Positions

Theologos P .

Last reported at 2014-Oct-02 09:23 UTC. Time now 2014-Oct-02 10:42 UTC.
Position N 38°01' E 024°01'.

Length 118 m; draft 4.5 m.

Type: Passenger vessel. MMSI: 240521000.

Date/timePositionNaut miles runAvg speedWind from/ knotsBaromVisibWave heightAir tempDewpointWater temp
2014-Oct-02 09:23N 38°01' E 024°01'2018.3
2014-Oct-02 08:15N 37°55' E 024°25'1318.7
2014-Oct-02 07:33N 37°52' E 024°42'10 9.5
2014-Oct-02 06:33N 37°45' E 024°50'1818.6
2014-Oct-02 05:33N 37°33' E 025°07'1111.0
2014-Oct-02 04:33N 37°28' E 025°20'0 0.0
2014-Oct-02 03:33N 37°28' E 025°20'0 0.0
2014-Oct-02 02:33N 37°28' E 025°20'0 0.0
2014-Oct-02 01:33N 37°28' E 025°20'0 0.0
2014-Oct-02 00:33N 37°28' E 025°20'0 0.0
2014-Oct-01 23:33N 37°28' E 025°20'0 0.0
2014-Oct-01 22:33N 37°28' E 025°20'0 0.0
2014-Oct-01 21:33N 37°28' E 025°20'0 0.0
2014-Oct-01 20:33N 37°28' E 025°20'0 0.0
2014-Oct-01 19:33N 37°28' E 025°20'9 9.3
2014-Oct-01 18:34N 37°32' E 025°09'1716.6
2014-Oct-01 17:33N 37°43' E 024°53'1310.9
2014-Oct-01 16:23N 37°52' E 024°42'2418.5
2014-Oct-01 15:06N 37°58' E 024°13'1018.2
2014-Oct-01 14:33N 38°01' E 024°01'0 0.0
2014-Oct-01 09:24N 38°01' E 024°01'2017.5
2014-Oct-01 08:14N 37°55' E 024°25'1418.6
2014-Oct-01 07:29N 37°52' E 024°42'1010.2
2014-Oct-01 06:31N 37°45' E 024°51'1718.2
2014-Oct-01 05:33N 37°33' E 025°07'1111.4
2014-Oct-01 04:33N 37°28' E 025°20'0 0.0
2014-Oct-01 03:33N 37°28' E 025°20'0 0.0
2014-Oct-01 02:33N 37°28' E 025°20'0 0.0
2014-Oct-01 01:33N 37°28' E 025°20'0 0.0
2014-Oct-01 00:33N 37°28' E 025°20'0 0.0
2014-Sep-30 23:33N 37°28' E 025°20'0 0.0
2014-Sep-30 22:33N 37°28' E 025°20'0 0.0
2014-Sep-30 21:33N 37°28' E 025°20'0 0.0
2014-Sep-30 20:33N 37°28' E 025°20'0 0.0
2014-Sep-30 19:33N 37°28' E 025°20'9 9.4
2014-Sep-30 18:34N 37°32' E 025°09'1918.1
2014-Sep-30 17:31N 37°45' E 024°51'1110.2
2014-Sep-30 16:25N 37°52' E 024°40'33 4.6
2014-Sep-30 09:17N 38°01' E 024°01'1518.3
2014-Sep-30 08:29N 37°57' E 024°18'3114.5
2014-Sep-30 06:23N 37°43' E 024°53'1518.3
2014-Sep-30 05:33N 37°33' E 025°07'1111.1
2014-Sep-30 04:33N 37°28' E 025°20'0 0.0
2014-Sep-30 03:33N 37°28' E 025°20'0 0.0
2014-Sep-30 02:33N 37°28' E 025°20'0 0.0
2014-Sep-30 01:33N 37°28' E 025°20'0 0.0
2014-Sep-30 00:33N 37°28' E 025°20'0 0.0
2014-Sep-29 23:33N 37°28' E 025°20'0 0.0
2014-Sep-29 22:33N 37°28' E 025°20'0 0.0
2014-Sep-29 21:33N 37°28' E 025°20'0 0.0
2014-Sep-29 20:33N 37°28' E 025°20'0 0.0
2014-Sep-29 19:33N 37°28' E 025°20'9 9.4
2014-Sep-29 18:33N 37°32' E 025°09'3414.2
2014-Sep-29 16:08N 37°52' E 024°33'1718.3
2014-Sep-29 15:13N 37°58' E 024°13'11 1.9
2014-Sep-29 09:33N 38°01' E 024°01'4914.4
2014-Sep-29 06:10N 37°40' E 024°56'1118.2
2014-Sep-29 05:33N 37°33' E 025°07'1111.3
2014-Sep-29 04:33N 37°28' E 025°20'0 0.0
2014-Sep-29 03:33N 37°28' E 025°20'0 0.0
2014-Sep-29 02:33N 37°28' E 025°20'0 0.0
2014-Sep-29 01:33N 37°28' E 025°20'0 0.0
2014-Sep-29 00:33N 37°28' E 025°20'0 0.0
2014-Sep-28 23:33N 37°28' E 025°20'0 0.0
2014-Sep-28 22:33N 37°28' E 025°20'0 0.0
2014-Sep-28 21:33N 37°28' E 025°20'0 0.0
2014-Sep-28 20:33N 37°28' E 025°20'0 0.0
2014-Sep-28 19:33N 37°28' E 025°20'9 9.4
2014-Sep-28 18:34N 37°32' E 025°09'5711.4
2014-Sep-28 13:32N 38°00' E 024°06'4615.4
2014-Sep-28 10:33N 37°39' E 024°58'1212.0
2014-Sep-28 09:33N 37°32' E 025°10'9 8.8
2014-Sep-28 08:33N 37°28' E 025°20'0 0.0
2014-Sep-28 07:33N 37°28' E 025°20'0 0.0
2014-Sep-28 06:33N 37°28' E 025°20'0 0.0
2014-Sep-28 05:33N 37°28' E 025°20'0 0.0
2014-Sep-28 04:33N 37°28' E 025°20'0 0.0
2014-Sep-28 03:33N 37°28' E 025°20'0 0.0
2014-Sep-28 02:33N 37°28' E 025°20'0 0.0
2014-Sep-28 01:33N 37°28' E 025°20'0 0.0
2014-Sep-28 00:33N 37°28' E 025°20'0 0.0
2014-Sep-27 23:33N 37°28' E 025°20'0 0.0
2014-Sep-27 22:34N 37°28' E 025°20'0 0.0
2014-Sep-27 21:33N 37°28' E 025°20'0 0.0
2014-Sep-27 20:32N 37°28' E 025°20'0 0.0
2014-Sep-27 19:33N 37°28' E 025°20'9 9.2
2014-Sep-27 18:33N 37°32' E 025°09'1615.3
2014-Sep-27 17:30N 37°42' E 024°54'1411.8
2014-Sep-27 16:17N 37°52' E 024°40'2018.3
2014-Sep-27 15:11N 37°58' E 024°15'1218.9
2014-Sep-27 14:33N 38°01' E 024°01'4 3.7
2014-Sep-27 13:33N 38°00' E 024°06'2018.9
2014-Sep-27 12:29N 37°54' E 024°30'1612.5
2014-Sep-27 11:13N 37°47' E 024°48'1218.7
2014-Sep-27 10:34N 37°38' E 024°59'1414.2
2014-Sep-27 09:33N 37°30' E 025°14'3 3.3
2014-Sep-27 08:34N 37°28' E 025°17'1413.4
2014-Sep-27 07:33N 37°35' E 025°03'3615.5
2014-Sep-27 05:13N 37°56' E 024°25'1419.3
2014-Sep-27 04:29N 38°00' E 024°08'5 1.3
2014-Sep-27 00:07N 38°01' E 024°01'1016.2
2014-Sep-26 23:32N 37°58' E 024°12'1918.7
2014-Sep-26 22:32N 37°53' E 024°35'1817.7
2014-Sep-26 21:31N 37°42' E 024°53'1818.5
2014-Sep-26 20:33N 37°31' E 025°10'8 7.7
2014-Sep-26 19:33N 37°28' E 025°19'9 9.1
2014-Sep-26 18:33N 37°32' E 025°09'2018.7
2014-Sep-26 17:30N 37°45' E 024°50'10 9.1
2014-Sep-26 16:25N 37°52' E 024°42'1618.6
2014-Sep-26 15:33N 37°56' E 024°22'18 2.8
2014-Sep-26 09:18N 38°01' E 024°01'1417.3
2014-Sep-26 08:31N 37°57' E 024°17'2814.2
2014-Sep-26 06:33N 37°45' E 024°49'1919.0
2014-Sep-26 05:32N 37°33' E 025°07'1110.9
2014-Sep-26 04:33N 37°28' E 025°20'0 0.0
2014-Sep-26 03:33N 37°28' E 025°20'0 0.0
2014-Sep-26 02:33N 37°28' E 025°20'0 0.0
2014-Sep-26 01:33N 37°28' E 025°20'0 0.0
2014-Sep-26 00:33N 37°28' E 025°20'0 0.0
2014-Sep-25 23:33N 37°28' E 025°20'0 0.0
2014-Sep-25 22:32N 37°28' E 025°20'0 0.0
2014-Sep-25 21:33N 37°28' E 025°20'0 0.0
2014-Sep-25 20:33N 37°28' E 025°20'0 0.0
2014-Sep-25 19:33N 37°28' E 025°20'9 9.3
2014-Sep-25 18:33N 37°32' E 025°09'3514.1
2014-Sep-25 16:03N 37°53' E 024°34'1618.2
2014-Sep-25 15:10N 37°58' E 024°14'11 1.9
2014-Sep-25 09:18N 38°01' E 024°01'1518.4
2014-Sep-25 08:28N 37°57' E 024°19'3014.0
2014-Sep-25 06:20N 37°43' E 024°53'1519.3
2014-Sep-25 05:33N 37°33' E 025°07'1111.3
2014-Sep-25 04:33N 37°28' E 025°20'0 0.0
2014-Sep-25 03:33N 37°28' E 025°20'0 0.0
2014-Sep-25 02:33N 37°28' E 025°20'0 0.0
2014-Sep-25 01:33N 37°28' E 025°20'0 0.0
2014-Sep-25 00:33N 37°28' E 025°20'0 0.0
2014-Sep-24 23:33N 37°28' E 025°20'0 0.0
2014-Sep-24 22:33N 37°28' E 025°20'0 0.0
2014-Sep-24 21:33N 37°28' E 025°20'0 0.0
2014-Sep-24 20:33N 37°28' E 025°20'0 0.0
2014-Sep-24 19:33N 37°28' E 025°20'9 9.3
2014-Sep-24 18:33N 37°32' E 025°09'5014.9
2014-Sep-24 15:14N 37°58' E 024°15'12 2.0
2014-Sep-24 09:17N 38°01' E 024°01'1517.8
2014-Sep-24 08:27N 37°57' E 024°19'3014.3
2014-Sep-24 06:19N 37°43' E 024°53'1519.1
2014-Sep-24 05:34N 37°33' E 025°07'1211.5
2014-Sep-24 04:33N 37°28' E 025°20'0 0.0
2014-Sep-24 03:33N 37°28' E 025°20'0 0.0
2014-Sep-24 02:33N 37°28' E 025°20'0 0.0
2014-Sep-24 01:33N 37°28' E 025°20'0 0.0
2014-Sep-24 00:33N 37°28' E 025°20'0 0.0
2014-Sep-23 23:33N 37°28' E 025°20'0 0.0
2014-Sep-23 22:33N 37°28' E 025°20'0 0.0
2014-Sep-23 21:33N 37°28' E 025°20'0 0.0
2014-Sep-23 20:33N 37°28' E 025°20'0 0.0
2014-Sep-23 19:33N 37°28' E 025°20'9 9.3
2014-Sep-23 18:33N 37°32' E 025°09'1615.9
2014-Sep-23 17:33N 37°42' E 024°54'1411.8
2014-Sep-23 16:24N 37°52' E 024°41'1618.8
2014-Sep-23 15:34N 37°56' E 024°22'18 2.8
2014-Sep-23 09:14N 38°01' E 024°01'1218.0
2014-Sep-23 08:34N 37°57' E 024°15'1919.0
2014-Sep-23 07:34N 37°53' E 024°39'1110.7
2014-Sep-23 06:32N 37°45' E 024°49'1919.1
2014-Sep-23 05:33N 37°33' E 025°06'1211.5
2014-Sep-23 04:33N 37°28' E 025°20'0 0.0
2014-Sep-23 03:33N 37°28' E 025°20'0 0.0
2014-Sep-23 02:33N 37°28' E 025°20'0 0.0
2014-Sep-23 01:33N 37°28' E 025°20'0 0.0
2014-Sep-23 00:33N 37°28' E 025°20'0 0.0
2014-Sep-22 23:33N 37°28' E 025°20'0 0.0
2014-Sep-22 22:33N 37°28' E 025°20'0 0.0
2014-Sep-22 21:33N 37°28' E 025°20'0 0.0
2014-Sep-22 20:33N 37°28' E 025°20'0 0.0
2014-Sep-22 19:33N 37°28' E 025°20'9 9.2
2014-Sep-22 18:33N 37°32' E 025°09'1515.0
2014-Sep-22 17:33N 37°41' E 024°54'1512.3
2014-Sep-22 16:19N 37°52' E 024°41'1419.0
2014-Sep-22 15:34N 37°55' E 024°23'  

Dump ship's entire track history